US-0036 weather

Wharton Field
Mechanicsville, Virginia, United States

Public forecast

Using degrees Fahrenheit for public forecast. Weather courtesy of forecast.io.

METAR (pilot weather report)

Closest report is New Kent County Airport, 7.0 nm (13.0 km) SE. Retrieved UTC (0 seconds ago):

TAF (pilot weather forecast)

Closest forecast is Richmond International Airport, 7.2 nm (13.4 km) SW. Retrieved 2019/06/25 12:22 UTC (31 minutes ago):

TAF KRIC 251120Z 2512/2612 27009KT P6SM SCT250 FM251400 32007KT P6SM SCT040 BKN250 FM260000 26004KT P6SM SKC